sensor_id;sensor_type;location;lat;lon;timestamp;temperature;humidity
11961;DHT22;6040;49.358;11.140;2022-09-27T00:00:45;11.20;99.90
11961;DHT22;6040;49.358;11.140;2022-09-27T00:03:12;11.10;99.90
11961;DHT22;6040;49.358;11.140;2022-09-27T00:05:40;11.00;99.90
11961;DHT22;6040;49.358;11.140;2022-09-27T00:08:07;11.10;99.90
11961;DHT22;6040;49.358;11.140;2022-09-27T00:10:34;11.10;99.90
11961;DHT22;6040;49.358;11.140;2022-09-27T00:13:01;11.60;99.90
11961;DHT22;6040;49.358;11.140;2022-09-27T00:15:28;11.00;99.90
11961;DHT22;6040;49.358;11.140;2022-09-27T00:17:55;11.00;99.90
11961;DHT22;6040;49.358;11.140;2022-09-27T00:20:22;11.00;99.90
11961;DHT22;6040;49.358;11.140;2022-09-27T00:22:50;10.90;99.90
11961;DHT22;6040;49.358;11.140;2022-09-27T00:25:17;10.90;99.90
11961;DHT22;6040;49.358;11.140;2022-09-27T00:27:44;10.90;99.90
11961;DHT22;6040;49.358;11.140;2022-09-27T00:30:12;10.90;99.90
11961;DHT22;6040;49.358;11.140;2022-09-27T00:32:39;10.80;99.90
11961;DHT22;6040;49.358;11.140;2022-09-27T00:35:07;10.90;99.90
11961;DHT22;6040;49.358;11.140;2022-09-27T00:37:34;10.80;99.90
11961;DHT22;6040;49.358;11.140;2022-09-27T00:42:30;10.90;99.90
11961;DHT22;6040;49.358;11.140;2022-09-27T00:45:11;10.80;99.90
11961;DHT22;6040;49.358;11.140;2022-09-27T00:50:17;10.70;99.90
11961;DHT22;6040;49.358;11.140;2022-09-27T00:52:53;10.80;99.90
11961;DHT22;6040;49.358;11.140;2022-09-27T00:55:26;10.80;99.90
11961;DHT22;6040;49.358;11.140;2022-09-27T00:57:55;10.70;99.90
11961;DHT22;6040;49.358;11.140;2022-09-27T01:00:22;10.70;99.90
11961;DHT22;6040;49.358;11.140;2022-09-27T01:02:51;10.70;99.90
11961;DHT22;6040;49.358;11.140;2022-09-27T01:05:21;10.70;99.90
11961;DHT22;6040;49.358;11.140;2022-09-27T01:07:49;10.70;99.90
11961;DHT22;6040;49.358;11.140;2022-09-27T01:10:17;10.70;99.90
11961;DHT22;6040;49.358;11.140;2022-09-27T01:12:56;10.70;99.90
11961;DHT22;6040;49.358;11.140;2022-09-27T01:15:28;10.70;99.90
11961;DHT22;6040;49.358;11.140;2022-09-27T01:18:09;10.70;99.90
11961;DHT22;6040;49.358;11.140;2022-09-27T01:20:54;10.70;99.90
11961;DHT22;6040;49.358;11.140;2022-09-27T01:26:41;10.70;99.90
11961;DHT22;6040;49.358;11.140;2022-09-27T01:29:17;10.70;99.90
11961;DHT22;6040;49.358;11.140;2022-09-27T01:31:53;10.60;99.90
11961;DHT22;6040;49.358;11.140;2022-09-27T01:34:28;10.60;99.90
11961;DHT22;6040;49.358;11.140;2022-09-27T01:37:01;10.60;99.90
11961;DHT22;6040;49.358;11.140;2022-09-27T01:39:35;10.60;99.90
11961;DHT22;6040;49.358;11.140;2022-09-27T01:42:09;10.60;99.90
11961;DHT22;6040;49.358;11.140;2022-09-27T01:44:39;10.60;99.90
11961;DHT22;6040;49.358;11.140;2022-09-27T01:47:15;10.60;99.90
11961;DHT22;6040;49.358;11.140;2022-09-27T01:50:02;10.50;99.90
11961;DHT22;6040;49.358;11.140;2022-09-27T01:52:34;10.60;99.90
11961;DHT22;6040;49.358;11.140;2022-09-27T01:55:04;10.50;99.90
11961;DHT22;6040;49.358;11.140;2022-09-27T01:57:36;10.50;99.90
11961;DHT22;6040;49.358;11.140;2022-09-27T02:00:05;10.50;99.90
11961;DHT22;6040;49.358;11.140;2022-09-27T02:02:38;10.50;99.90
11961;DHT22;6040;49.358;11.140;2022-09-27T02:05:07;10.60;99.90
11961;DHT22;6040;49.358;11.140;2022-09-27T02:07:41;10.70;99.90
11961;DHT22;6040;49.358;11.140;2022-09-27T02:10:14;10.50;99.90
11961;DHT22;6040;49.358;11.140;2022-09-27T02:12:48;10.50;99.90
11961;DHT22;6040;49.358;11.140;2022-09-27T02:15:17;10.60;99.90
11961;DHT22;6040;49.358;11.140;2022-09-27T02:17:52;10.50;99.90
11961;DHT22;6040;49.358;11.140;2022-09-27T02:20:26;10.40;99.90
11961;DHT22;6040;49.358;11.140;2022-09-27T02:23:07;10.50;99.90
11961;DHT22;6040;49.358;11.140;2022-09-27T02:25:41;10.50;99.90
11961;DHT22;6040;49.358;11.140;2022-09-27T02:28:16;10.50;99.90
11961;DHT22;6040;49.358;11.140;2022-09-27T02:30:47;10.40;99.90
11961;DHT22;6040;49.358;11.140;2022-09-27T02:33:17;10.50;99.90
11961;DHT22;6040;49.358;11.140;2022-09-27T02:35:45;10.40;99.90
11961;DHT22;6040;49.358;11.140;2022-09-27T02:38:12;10.40;99.90
11961;DHT22;6040;49.358;11.140;2022-09-27T02:40:42;10.40;99.90
11961;DHT22;6040;49.358;11.140;2022-09-27T02:43:10;10.30;99.90
11961;DHT22;6040;49.358;11.140;2022-09-27T02:45:45;10.40;99.90
11961;DHT22;6040;49.358;11.140;2022-09-27T02:48:22;10.30;99.90
11961;DHT22;6040;49.358;11.140;2022-09-27T02:51:04;10.30;99.90
11961;DHT22;6040;49.358;11.140;2022-09-27T02:53:41;10.30;99.90
11961;DHT22;6040;49.358;11.140;2022-09-27T02:56:15;10.00;99.90
11961;DHT22;6040;49.358;11.140;2022-09-27T02:58:52;10.20;99.90
11961;DHT22;6040;49.358;11.140;2022-09-27T03:01:26;10.20;99.90
11961;DHT22;6040;49.358;11.140;2022-09-27T03:04:01;10.20;99.90
11961;DHT22;6040;49.358;11.140;2022-09-27T03:06:32;10.20;99.90
11961;DHT22;6040;49.358;11.140;2022-09-27T03:08:59;10.10;99.90
11961;DHT22;6040;49.358;11.140;2022-09-27T03:11:26;10.10;99.90
11961;DHT22;6040;49.358;11.140;2022-09-27T03:13:53;10.10;99.90
11961;DHT22;6040;49.358;11.140;2022-09-27T03:16:20;10.00;99.90
11961;DHT22;6040;49.358;11.140;2022-09-27T03:18:47;10.00;99.90
11961;DHT22;6040;49.358;11.140;2022-09-27T03:21:15;10.00;99.90
11961;DHT22;6040;49.358;11.140;2022-09-27T03:23:42;10.00;99.90
11961;DHT22;6040;49.358;11.140;2022-09-27T03:26:09;10.00;99.90
11961;DHT22;6040;49.358;11.140;2022-09-27T03:28:36;10.00;99.90
11961;DHT22;6040;49.358;11.140;2022-09-27T03:31:02;10.00;99.90
11961;DHT22;6040;49.358;11.140;2022-09-27T03:33:29;10.10;99.90
11961;DHT22;6040;49.358;11.140;2022-09-27T03:35:58;10.10;99.90
11961;DHT22;6040;49.358;11.140;2022-09-27T03:38:26;10.10;99.90
11961;DHT22;6040;49.358;11.140;2022-09-27T03:40:53;10.00;99.90
11961;DHT22;6040;49.358;11.140;2022-09-27T03:43:20;10.10;99.90
11961;DHT22;6040;49.358;11.140;2022-09-27T03:45:47;10.10;99.90
11961;DHT22;6040;49.358;11.140;2022-09-27T03:48:14;10.10;99.90
11961;DHT22;6040;49.358;11.140;2022-09-27T03:50:42;10.10;99.90
11961;DHT22;6040;49.358;11.140;2022-09-27T03:53:08;10.10;99.90
11961;DHT22;6040;49.358;11.140;2022-09-27T03:55:37;10.10;99.90
11961;DHT22;6040;49.358;11.140;2022-09-27T03:58:04;10.10;99.90
11961;DHT22;6040;49.358;11.140;2022-09-27T04:00:31;10.10;99.90
11961;DHT22;6040;49.358;11.140;2022-09-27T04:02:58;10.10;99.90
11961;DHT22;6040;49.358;11.140;2022-09-27T04:05:26;10.20;99.90
11961;DHT22;6040;49.358;11.140;2022-09-27T04:07:53;10.20;99.90
11961;DHT22;6040;49.358;11.140;2022-09-27T04:10:20;10.20;99.90
11961;DHT22;6040;49.358;11.140;2022-09-27T04:12:49;10.10;99.90
11961;DHT22;6040;49.358;11.140;2022-09-27T04:15:16;10.10;99.90
11961;DHT22;6040;49.358;11.140;2022-09-27T04:17:44;9.10;99.90
11961;DHT22;6040;49.358;11.140;2022-09-27T04:20:11;10.20;99.90
11961;DHT22;6040;49.358;11.140;2022-09-27T04:22:39;10.20;99.90
11961;DHT22;6040;49.358;11.140;2022-09-27T04:25:08;10.20;99.90
11961;DHT22;6040;49.358;11.140;2022-09-27T04:27:36;10.20;99.90
11961;DHT22;6040;49.358;11.140;2022-09-27T04:30:05;10.20;99.90
11961;DHT22;6040;49.358;11.140;2022-09-27T04:32:32;10.20;99.90
11961;DHT22;6040;49.358;11.140;2022-09-27T04:35:00;10.20;99.90
11961;DHT22;6040;49.358;11.140;2022-09-27T04:37:44;10.20;99.90
11961;DHT22;6040;49.358;11.140;2022-09-27T04:40:11;10.20;99.90
11961;DHT22;6040;49.358;11.140;2022-09-27T04:42:38;10.10;99.90
11961;DHT22;6040;49.358;11.140;2022-09-27T04:45:07;10.20;99.90
11961;DHT22;6040;49.358;11.140;2022-09-27T04:47:34;10.20;99.90
11961;DHT22;6040;49.358;11.140;2022-09-27T04:50:01;10.20;99.90
11961;DHT22;6040;49.358;11.140;2022-09-27T04:52:27;10.20;99.90
11961;DHT22;6040;49.358;11.140;2022-09-27T04:54:56;10.20;99.90
11961;DHT22;6040;49.358;11.140;2022-09-27T04:57:22;10.20;99.90
11961;DHT22;6040;49.358;11.140;2022-09-27T04:59:49;10.20;99.90
11961;DHT22;6040;49.358;11.140;2022-09-27T05:02:18;10.20;99.90
11961;DHT22;6040;49.358;11.140;2022-09-27T05:04:45;10.10;99.90
11961;DHT22;6040;49.358;11.140;2022-09-27T05:07:12;10.10;99.90
11961;DHT22;6040;49.358;11.140;2022-09-27T05:09:39;9.80;99.90
11961;DHT22;6040;49.358;11.140;2022-09-27T05:12:06;10.00;99.90
11961;DHT22;6040;49.358;11.140;2022-09-27T05:14:33;10.00;99.90
11961;DHT22;6040;49.358;11.140;2022-09-27T05:17:00;10.00;99.90
11961;DHT22;6040;49.358;11.140;2022-09-27T05:19:28;9.90;99.90
11961;DHT22;6040;49.358;11.140;2022-09-27T05:21:55;9.90;99.90
11961;DHT22;6040;49.358;11.140;2022-09-27T05:24:22;9.90;99.90
11961;DHT22;6040;49.358;11.140;2022-09-27T05:26:49;9.90;99.90
11961;DHT22;6040;49.358;11.140;2022-09-27T05:29:16;9.90;99.90
11961;DHT22;6040;49.358;11.140;2022-09-27T05:31:43;9.80;99.90
11961;DHT22;6040;49.358;11.140;2022-09-27T05:36:40;9.90;99.90
11961;DHT22;6040;49.358;11.140;2022-09-27T05:39:07;9.90;99.90
11961;DHT22;6040;49.358;11.140;2022-09-27T05:41:34;9.80;99.90
11961;DHT22;6040;49.358;11.140;2022-09-27T05:44:01;9.80;99.90
11961;DHT22;6040;49.358;11.140;2022-09-27T05:46:28;9.80;99.90
11961;DHT22;6040;49.358;11.140;2022-09-27T05:48:55;9.80;99.90
11961;DHT22;6040;49.358;11.140;2022-09-27T05:51:22;9.90;99.90
11961;DHT22;6040;49.358;11.140;2022-09-27T05:53:50;9.80;99.90
11961;DHT22;6040;49.358;11.140;2022-09-27T05:56:18;9.80;99.90
11961;DHT22;6040;49.358;11.140;2022-09-27T05:58:44;9.90;99.90
11961;DHT22;6040;49.358;11.140;2022-09-27T06:01:11;9.90;99.90
11961;DHT22;6040;49.358;11.140;2022-09-27T06:03:38;9.90;99.90
11961;DHT22;6040;49.358;11.140;2022-09-27T06:06:05;9.80;99.90
11961;DHT22;6040;49.358;11.140;2022-09-27T06:08:36;9.90;99.90
11961;DHT22;6040;49.358;11.140;2022-09-27T06:11:06;9.80;99.90
11961;DHT22;6040;49.358;11.140;2022-09-27T06:13:35;9.80;99.90
11961;DHT22;6040;49.358;11.140;2022-09-27T06:16:03;9.80;99.90
11961;DHT22;6040;49.358;11.140;2022-09-27T06:18:30;9.80;99.90
11961;DHT22;6040;49.358;11.140;2022-09-27T06:20:58;9.80;99.90
11961;DHT22;6040;49.358;11.140;2022-09-27T06:23:26;9.90;99.90
11961;DHT22;6040;49.358;11.140;2022-09-27T06:25:53;9.80;99.90
11961;DHT22;6040;49.358;11.140;2022-09-27T06:28:22;9.90;99.90
11961;DHT22;6040;49.358;11.140;2022-09-27T06:30:49;9.90;99.90
11961;DHT22;6040;49.358;11.140;2022-09-27T06:33:18;9.90;99.90
11961;DHT22;6040;49.358;11.140;2022-09-27T06:35:46;9.70;99.90
11961;DHT22;6040;49.358;11.140;2022-09-27T06:38:15;9.90;99.90
11961;DHT22;6040;49.358;11.140;2022-09-27T06:40:43;10.00;99.90
11961;DHT22;6040;49.358;11.140;2022-09-27T06:43:12;10.00;99.90
11961;DHT22;6040;49.358;11.140;2022-09-27T06:45:41;10.10;99.90
11961;DHT22;6040;49.358;11.140;2022-09-27T06:48:09;10.00;99.90
11961;DHT22;6040;49.358;11.140;2022-09-27T06:50:38;10.00;99.90
11961;DHT22;6040;49.358;11.140;2022-09-27T06:53:07;10.00;99.90
11961;DHT22;6040;49.358;11.140;2022-09-27T06:55:35;10.10;99.90
11961;DHT22;6040;49.358;11.140;2022-09-27T06:58:03;10.10;99.90
11961;DHT22;6040;49.358;11.140;2022-09-27T07:00:50;10.10;99.90
11961;DHT22;6040;49.358;11.140;2022-09-27T07:03:18;10.20;99.90
11961;DHT22;6040;49.358;11.140;2022-09-27T07:05:53;10.00;99.90
11961;DHT22;6040;49.358;11.140;2022-09-27T07:08:22;10.00;99.90
11961;DHT22;6040;49.358;11.140;2022-09-27T07:10:53;10.10;99.90
11961;DHT22;6040;49.358;11.140;2022-09-27T07:13:21;10.00;99.90
11961;DHT22;6040;49.358;11.140;2022-09-27T07:15:50;10.00;99.90
11961;DHT22;6040;49.358;11.140;2022-09-27T07:18:17;10.00;99.90
11961;DHT22;6040;49.358;11.140;2022-09-27T07:20:45;10.10;99.90
11961;DHT22;6040;49.358;11.140;2022-09-27T07:23:13;10.00;99.90
11961;DHT22;6040;49.358;11.140;2022-09-27T07:25:40;9.90;99.90
11961;DHT22;6040;49.358;11.140;2022-09-27T07:28:10;10.00;99.90
11961;DHT22;6040;49.358;11.140;2022-09-27T07:30:39;10.10;99.90
11961;DHT22;6040;49.358;11.140;2022-09-27T07:33:09;10.20;99.90
11961;DHT22;6040;49.358;11.140;2022-09-27T07:35:38;10.20;99.90
11961;DHT22;6040;49.358;11.140;2022-09-27T07:38:06;10.20;99.90
11961;DHT22;6040;49.358;11.140;2022-09-27T07:40:36;10.30;99.90
11961;DHT22;6040;49.358;11.140;2022-09-27T07:43:03;10.30;99.90
11961;DHT22;6040;49.358;11.140;2022-09-27T07:45:31;10.30;99.90
11961;DHT22;6040;49.358;11.140;2022-09-27T07:47:58;10.50;99.90
11961;DHT22;6040;49.358;11.140;2022-09-27T07:50:26;10.70;99.90
11961;DHT22;6040;49.358;11.140;2022-09-27T07:52:53;10.80;99.90
11961;DHT22;6040;49.358;11.140;2022-09-27T07:55:21;11.00;99.90
11961;DHT22;6040;49.358;11.140;2022-09-27T07:57:49;11.10;99.90
11961;DHT22;6040;49.358;11.140;2022-09-27T08:00:17;11.10;99.90
11961;DHT22;6040;49.358;11.140;2022-09-27T08:02:45;11.00;99.90
11961;DHT22;6040;49.358;11.140;2022-09-27T08:05:12;11.20;99.90
11961;DHT22;6040;49.358;11.140;2022-09-27T08:07:41;11.10;99.90
11961;DHT22;6040;49.358;11.140;2022-09-27T08:10:09;11.10;99.90
11961;DHT22;6040;49.358;11.140;2022-09-27T08:12:36;11.00;99.90
11961;DHT22;6040;49.358;11.140;2022-09-27T08:15:04;10.90;99.90
11961;DHT22;6040;49.358;11.140;2022-09-27T08:17:32;10.90;99.90
11961;DHT22;6040;49.358;11.140;2022-09-27T08:19:59;10.90;99.90
11961;DHT22;6040;49.358;11.140;2022-09-27T08:22:30;11.10;99.90
11961;DHT22;6040;49.358;11.140;2022-09-27T08:24:58;11.30;99.90
11961;DHT22;6040;49.358;11.140;2022-09-27T08:27:25;11.50;99.90
11961;DHT22;6040;49.358;11.140;2022-09-27T08:29:52;11.50;99.90
11961;DHT22;6040;49.358;11.140;2022-09-27T08:32:19;11.70;99.90
11961;DHT22;6040;49.358;11.140;2022-09-27T08:34:46;11.70;99.90
11961;DHT22;6040;49.358;11.140;2022-09-27T08:37:13;11.70;99.90
11961;DHT22;6040;49.358;11.140;2022-09-27T08:39:39;11.50;99.90
11961;DHT22;6040;49.358;11.140;2022-09-27T08:42:15;11.40;99.90
11961;DHT22;6040;49.358;11.140;2022-09-27T08:44:49;11.40;99.90
11961;DHT22;6040;49.358;11.140;2022-09-27T08:47:24;11.30;99.90
11961;DHT22;6040;49.358;11.140;2022-09-27T08:49:56;11.30;99.90
11961;DHT22;6040;49.358;11.140;2022-09-27T08:52:28;11.40;99.90
11961;DHT22;6040;49.358;11.140;2022-09-27T08:54:57;11.10;99.90
11961;DHT22;6040;49.358;11.140;2022-09-27T08:57:28;11.10;99.90
11961;DHT22;6040;49.358;11.140;2022-09-27T09:00:00;11.10;99.90
11961;DHT22;6040;49.358;11.140;2022-09-27T09:02:28;11.00;99.90
11961;DHT22;6040;49.358;11.140;2022-09-27T09:04:57;11.00;99.90
11961;DHT22;6040;49.358;11.140;2022-09-27T09:07:36;11.00;99.90
11961;DHT22;6040;49.358;11.140;2022-09-27T09:10:23;11.00;99.90
11961;DHT22;6040;49.358;11.140;2022-09-27T09:13:18;11.00;99.90
11961;DHT22;6040;49.358;11.140;2022-09-27T09:15:55;10.90;99.90
11961;DHT22;6040;49.358;11.140;2022-09-27T09:18:33;10.90;99.90
11961;DHT22;6040;49.358;11.140;2022-09-27T09:21:10;10.90;99.90
11961;DHT22;6040;49.358;11.140;2022-09-27T09:23:58;10.80;99.90
11961;DHT22;6040;49.358;11.140;2022-09-27T09:26:36;10.80;99.90
11961;DHT22;6040;49.358;11.140;2022-09-27T09:29:17;10.80;99.90
11961;DHT22;6040;49.358;11.140;2022-09-27T09:31:49;10.70;99.90
11961;DHT22;6040;49.358;11.140;2022-09-27T09:34:22;10.80;99.90
11961;DHT22;6040;49.358;11.140;2022-09-27T09:36:53;10.90;99.90
11961;DHT22;6040;49.358;11.140;2022-09-27T09:39:24;11.00;99.90
11961;DHT22;6040;49.358;11.140;2022-09-27T09:42:05;11.10;99.90
11961;DHT22;6040;49.358;11.140;2022-09-27T09:44:42;11.30;99.90
11961;DHT22;6040;49.358;11.140;2022-09-27T09:47:19;11.40;99.90
11961;DHT22;6040;49.358;11.140;2022-09-27T09:49:50;11.50;99.90
11961;DHT22;6040;49.358;11.140;2022-09-27T09:52:20;11.50;99.90
11961;DHT22;6040;49.358;11.140;2022-09-27T09:54:52;11.50;99.90
11961;DHT22;6040;49.358;11.140;2022-09-27T09:57:24;11.50;99.90
11961;DHT22;6040;49.358;11.140;2022-09-27T09:59:57;11.40;99.90
11961;DHT22;6040;49.358;11.140;2022-09-27T10:02:29;11.50;99.90
11961;DHT22;6040;49.358;11.140;2022-09-27T10:04:57;11.40;99.90
11961;DHT22;6040;49.358;11.140;2022-09-27T10:07:25;11.30;99.90
11961;DHT22;6040;49.358;11.140;2022-09-27T10:09:55;11.20;99.90
11961;DHT22;6040;49.358;11.140;2022-09-27T10:12:23;11.20;99.90
11961;DHT22;6040;49.358;11.140;2022-09-27T10:14:53;11.20;99.90
11961;DHT22;6040;49.358;11.140;2022-09-27T10:17:26;11.20;99.90
11961;DHT22;6040;49.358;11.140;2022-09-27T10:19:55;11.20;99.90
11961;DHT22;6040;49.358;11.140;2022-09-27T10:22:28;11.20;99.90
11961;DHT22;6040;49.358;11.140;2022-09-27T10:24:58;11.20;99.90
11961;DHT22;6040;49.358;11.140;2022-09-27T10:27:28;11.20;99.90
11961;DHT22;6040;49.358;11.140;2022-09-27T10:30:06;11.20;99.90
11961;DHT22;6040;49.358;11.140;2022-09-27T10:32:33;11.10;99.90
11961;DHT22;6040;49.358;11.140;2022-09-27T10:35:19;11.30;99.90
11961;DHT22;6040;49.358;11.140;2022-09-27T10:37:47;11.30;99.90
11961;DHT22;6040;49.358;11.140;2022-09-27T10:40:26;12.00;99.90
11961;DHT22;6040;49.358;11.140;2022-09-27T10:42:53;11.20;99.90
11961;DHT22;6040;49.358;11.140;2022-09-27T10:45:29;11.40;99.90
11961;DHT22;6040;49.358;11.140;2022-09-27T10:47:58;11.30;99.90
11961;DHT22;6040;49.358;11.140;2022-09-27T10:50:26;11.30;99.90
11961;DHT22;6040;49.358;11.140;2022-09-27T10:53:02;11.40;99.90
11961;DHT22;6040;49.358;11.140;2022-09-27T10:55:31;11.40;99.90
11961;DHT22;6040;49.358;11.140;2022-09-27T10:57:59;11.50;99.90
11961;DHT22;6040;49.358;11.140;2022-09-27T11:00:30;11.70;99.90
11961;DHT22;6040;49.358;11.140;2022-09-27T11:03:00;12.70;99.90
11961;DHT22;6040;49.358;11.140;2022-09-27T11:05:32;11.60;99.90
11961;DHT22;6040;49.358;11.140;2022-09-27T11:08:01;11.40;99.90
11961;DHT22;6040;49.358;11.140;2022-09-27T11:10:31;11.30;99.90
11961;DHT22;6040;49.358;11.140;2022-09-27T11:13:06;11.40;99.90
11961;DHT22;6040;49.358;11.140;2022-09-27T11:15:42;11.50;99.90
11961;DHT22;6040;49.358;11.140;2022-09-27T11:18:16;11.80;99.90
11961;DHT22;6040;49.358;11.140;2022-09-27T11:20:55;12.30;99.90
11961;DHT22;6040;49.358;11.140;2022-09-27T11:23:42;13.00;99.90
11961;DHT22;6040;49.358;11.140;2022-09-27T11:26:27;13.80;99.90
11961;DHT22;6040;49.358;11.140;2022-09-27T11:29:05;13.70;99.90
11961;DHT22;6040;49.358;11.140;2022-09-27T11:31:42;13.60;99.90
11961;DHT22;6040;49.358;11.140;2022-09-27T11:34:45;13.50;99.90
11961;DHT22;6040;49.358;11.140;2022-09-27T11:37:21;13.40;99.90
11961;DHT22;6040;49.358;11.140;2022-09-27T11:40:02;13.50;99.90
11961;DHT22;6040;49.358;11.140;2022-09-27T11:42:59;13.80;99.90
11961;DHT22;6040;49.358;11.140;2022-09-27T11:45:39;13.80;99.90
11961;DHT22;6040;49.358;11.140;2022-09-27T11:48:22;13.60;99.90
11961;DHT22;6040;49.358;11.140;2022-09-27T11:51:01;13.50;99.90
11961;DHT22;6040;49.358;11.140;2022-09-27T11:53:57;13.40;99.90
11961;DHT22;6040;49.358;11.140;2022-09-27T11:56:36;13.30;99.90
11961;DHT22;6040;49.358;11.140;2022-09-27T11:59:36;13.20;99.90
11961;DHT22;6040;49.358;11.140;2022-09-27T12:02:27;13.10;99.90
11961;DHT22;6040;49.358;11.140;2022-09-27T12:05:07;12.90;99.90
11961;DHT22;6040;49.358;11.140;2022-09-27T12:07:44;12.80;99.90
11961;DHT22;6040;49.358;11.140;2022-09-27T12:10:17;12.60;99.90
11961;DHT22;6040;49.358;11.140;2022-09-27T12:12:49;12.50;99.90
11961;DHT22;6040;49.358;11.140;2022-09-27T12:15:19;12.50;99.90
11961;DHT22;6040;49.358;11.140;2022-09-27T12:17:49;12.50;99.90
11961;DHT22;6040;49.358;11.140;2022-09-27T12:20:21;12.60;99.90
11961;DHT22;6040;49.358;11.140;2022-09-27T12:22:53;12.70;99.90
11961;DHT22;6040;49.358;11.140;2022-09-27T12:25:22;13.80;99.90
11961;DHT22;6040;49.358;11.140;2022-09-27T12:27:53;13.30;99.90
11961;DHT22;6040;49.358;11.140;2022-09-27T12:30:22;13.40;99.90
11961;DHT22;6040;49.358;11.140;2022-09-27T12:32:55;14.30;99.90
11961;DHT22;6040;49.358;11.140;2022-09-27T12:35:29;13.60;99.90
11961;DHT22;6040;49.358;11.140;2022-09-27T12:37:59;14.00;99.90
11961;DHT22;6040;49.358;11.140;2022-09-27T12:40:31;13.80;99.90
11961;DHT22;6040;49.358;11.140;2022-09-27T12:43:05;13.70;99.90
11961;DHT22;6040;49.358;11.140;2022-09-27T12:45:42;12.80;99.90
11961;DHT22;6040;49.358;11.140;2022-09-27T12:48:17;13.20;99.90
11961;DHT22;6040;49.358;11.140;2022-09-27T12:50:52;13.00;99.90
11961;DHT22;6040;49.358;11.140;2022-09-27T12:53:22;12.80;99.90
11961;DHT22;6040;49.358;11.140;2022-09-27T12:56:12;12.50;99.90
11961;DHT22;6040;49.358;11.140;2022-09-27T12:59:15;13.20;99.90
11961;DHT22;6040;49.358;11.140;2022-09-27T13:02:02;11.80;99.90
11961;DHT22;6040;49.358;11.140;2022-09-27T13:04:50;11.60;99.90
11961;DHT22;6040;49.358;11.140;2022-09-27T13:07:29;11.80;99.90
11961;DHT22;6040;49.358;11.140;2022-09-27T13:10:23;11.90;99.90
11961;DHT22;6040;49.358;11.140;2022-09-27T13:12:57;12.10;99.90
11961;DHT22;6040;49.358;11.140;2022-09-27T13:15:27;12.20;99.90
11961;DHT22;6040;49.358;11.140;2022-09-27T13:17:56;12.50;99.90
11961;DHT22;6040;49.358;11.140;2022-09-27T13:20:51;12.70;99.90
11961;DHT22;6040;49.358;11.140;2022-09-27T13:26:45;13.00;99.90
11961;DHT22;6040;49.358;11.140;2022-09-27T13:32:17;13.40;99.90
11961;DHT22;6040;49.358;11.140;2022-09-27T13:34:46;13.30;99.90
11961;DHT22;6040;49.358;11.140;2022-09-27T13:37:46;13.30;99.90
11961;DHT22;6040;49.358;11.140;2022-09-27T13:40:23;13.10;99.90
11961;DHT22;6040;49.358;11.140;2022-09-27T13:46:01;12.60;99.90
11961;DHT22;6040;49.358;11.140;2022-09-27T13:48:41;12.40;99.90
11961;DHT22;6040;49.358;11.140;2022-09-27T13:51:18;13.70;99.90
11961;DHT22;6040;49.358;11.140;2022-09-27T13:53:56;12.20;99.90
11961;DHT22;6040;49.358;11.140;2022-09-27T13:56:49;12.10;99.90
11961;DHT22;6040;49.358;11.140;2022-09-27T13:59:22;12.10;99.90
11961;DHT22;6040;49.358;11.140;2022-09-27T14:01:51;12.20;99.90
11961;DHT22;6040;49.358;11.140;2022-09-27T14:04:21;12.20;99.90
11961;DHT22;6040;49.358;11.140;2022-09-27T14:06:53;12.20;99.90
11961;DHT22;6040;49.358;11.140;2022-09-27T14:09:25;12.20;99.90
11961;DHT22;6040;49.358;11.140;2022-09-27T14:11:56;12.30;99.90
11961;DHT22;6040;49.358;11.140;2022-09-27T14:14:28;12.20;99.90
11961;DHT22;6040;49.358;11.140;2022-09-27T14:16:58;12.10;99.90
11961;DHT22;6040;49.358;11.140;2022-09-27T14:19:26;12.10;99.90
11961;DHT22;6040;49.358;11.140;2022-09-27T14:22:10;12.00;99.90
11961;DHT22;6040;49.358;11.140;2022-09-27T14:24:46;12.00;99.90
11961;DHT22;6040;49.358;11.140;2022-09-27T14:27:16;11.90;99.90
11961;DHT22;6040;49.358;11.140;2022-09-27T14:29:47;11.90;99.90
11961;DHT22;6040;49.358;11.140;2022-09-27T14:32:15;12.10;99.90
11961;DHT22;6040;49.358;11.140;2022-09-27T14:34:43;11.90;99.90
11961;DHT22;6040;49.358;11.140;2022-09-27T14:37:22;11.90;99.90
11961;DHT22;6040;49.358;11.140;2022-09-27T14:39:54;11.80;99.90
11961;DHT22;6040;49.358;11.140;2022-09-27T14:42:23;11.70;99.90
11961;DHT22;6040;49.358;11.140;2022-09-27T14:44:52;11.70;99.90
11961;DHT22;6040;49.358;11.140;2022-09-27T14:47:23;11.70;99.90
11961;DHT22;6040;49.358;11.140;2022-09-27T14:49:52;11.60;99.90
11961;DHT22;6040;49.358;11.140;2022-09-27T14:52:22;11.60;99.90
11961;DHT22;6040;49.358;11.140;2022-09-27T14:55:00;11.50;99.90
11961;DHT22;6040;49.358;11.140;2022-09-27T14:57:28;12.10;99.90
11961;DHT22;6040;49.358;11.140;2022-09-27T15:00:00;11.50;99.90
11961;DHT22;6040;49.358;11.140;2022-09-27T15:02:40;11.50;99.90
11961;DHT22;6040;49.358;11.140;2022-09-27T15:05:13;11.60;99.90
11961;DHT22;6040;49.358;11.140;2022-09-27T15:07:41;11.50;99.90
11961;DHT22;6040;49.358;11.140;2022-09-27T15:10:13;11.50;99.90
11961;DHT22;6040;49.358;11.140;2022-09-27T15:12:42;11.40;99.90
11961;DHT22;6040;49.358;11.140;2022-09-27T15:15:17;11.40;99.90
11961;DHT22;6040;49.358;11.140;2022-09-27T15:17:45;11.30;99.90
11961;DHT22;6040;49.358;11.140;2022-09-27T15:20:22;11.30;99.90
11961;DHT22;6040;49.358;11.140;2022-09-27T15:22:50;11.30;99.90
11961;DHT22;6040;49.358;11.140;2022-09-27T15:25:21;11.30;99.90
11961;DHT22;6040;49.358;11.140;2022-09-27T15:27:50;11.30;99.90
11961;DHT22;6040;49.358;11.140;2022-09-27T15:30:24;11.30;99.90
11961;DHT22;6040;49.358;11.140;2022-09-27T15:32:52;11.20;99.90
11961;DHT22;6040;49.358;11.140;2022-09-27T15:35:26;11.10;99.90
11961;DHT22;6040;49.358;11.140;2022-09-27T15:38:11;11.10;99.90
11961;DHT22;6040;49.358;11.140;2022-09-27T15:43:38;10.90;99.90
11961;DHT22;6040;49.358;11.140;2022-09-27T15:46:32;10.90;99.90
11961;DHT22;6040;49.358;11.140;2022-09-27T15:49:19;10.80;99.90
11961;DHT22;6040;49.358;11.140;2022-09-27T15:51:48;10.80;99.90
11961;DHT22;6040;49.358;11.140;2022-09-27T15:54:20;10.80;99.90
11961;DHT22;6040;49.358;11.140;2022-09-27T15:56:48;10.80;99.90
11961;DHT22;6040;49.358;11.140;2022-09-27T15:59:19;10.80;99.90
11961;DHT22;6040;49.358;11.140;2022-09-27T16:01:48;10.80;99.90
11961;DHT22;6040;49.358;11.140;2022-09-27T16:04:16;10.80;99.90
11961;DHT22;6040;49.358;11.140;2022-09-27T16:06:45;10.70;99.90
11961;DHT22;6040;49.358;11.140;2022-09-27T16:09:19;10.80;99.90
11961;DHT22;6040;49.358;11.140;2022-09-27T16:11:47;10.70;99.90
11961;DHT22;6040;49.358;11.140;2022-09-27T16:14:15;10.70;99.90
11961;DHT22;6040;49.358;11.140;2022-09-27T16:16:43;10.70;99.90
11961;DHT22;6040;49.358;11.140;2022-09-27T16:19:12;10.60;99.90
11961;DHT22;6040;49.358;11.140;2022-09-27T16:21:39;10.60;99.90
11961;DHT22;6040;49.358;11.140;2022-09-27T16:24:07;10.50;99.90